CMA CGM J. Adams — MAZS6 — position and weather

sailwx.info

Track history (hours):
 
Tides and Currents Weather Stations Pressure Air Temp Water Temp Dewpoint Dewpoint Depression Visibility Wind Speed Wind Dir Waves Ship Positions

CMA CGM J. Adams

Last reported at 2017-Nov-16 05:38 UTC. Time now 2017-Nov-24 15:12 UTC.
Position N 28°41' W 119°45'.
Warning: this ship's position is 8 days out of date.

Length 366 m; draft 12.8 m.

Type: Ship (hazmat cat D). MMSI: 232007935.

Date/timePositionNaut miles runAvg speedWind from/ knotsBaromVisibWave heightAir tempDewpointWater temp
2017-Nov-16 05:38N 28°41' W 119°45'320.2
2017-Nov-16 05:30N 28°43' W 119°48'1220.1
2017-Nov-16 04:54N 28°50' W 119°59'819.9
2017-Nov-16 04:30N 28°55' W 120°06'1019.9
2017-Nov-16 03:59N 29°01' W 120°15'3920.0
2017-Nov-16 02:01N 29°24' W 120°52'119.7
2017-Nov-16 01:59N 29°25' W 120°52'919.7
2017-Nov-16 01:30N 29°30' W 121°01'1319.8
2017-Nov-16 00:50N 29°38' W 121°13'1419.8
2017-Nov-16 00:08N 29°47' W 121°26'219.9
2017-Nov-16 00:00N 29°48' W 121°28'1019.8
2017-Nov-15 23:30N 29°54' W 121°38'1019.8
2017-Nov-15 23:00N 29°60' W 121°47'1019.9
2017-Nov-15 22:30N 30°05' W 121°56'1019.8
2017-Nov-15 22:00N 30°11' W 122°05'1019.9
2017-Nov-15 21:30N 30°17' W 122°15'1020.0
2017-Nov-15 21:00N 30°24' W 122°24'1020.1
2017-Nov-15 20:30N 30°30' W 122°33'1020.3
2017-Nov-15 20:00N 30°36' W 122°42'1020.7
2017-Nov-15 19:30N 30°43' W 122°51'1020.5
2017-Nov-15 19:00N 30°49' W 123°00'1122.3
2017-Nov-15 18:30N 30°56' W 123°11'1223.5
2017-Nov-15 18:00N 31°04' W 123°21'1223.2
2017-Nov-15 17:30N 31°11' W 123°32'1223.1
2017-Nov-15 17:00N 31°18' W 123°43'1121.7
2017-Nov-15 16:30N 31°25' W 123°53'1020.5
2017-Nov-15 16:00N 31°31' W 124°02'1120.3
2017-Nov-15 15:29N 31°38' W 124°12'1020.0
2017-Nov-15 15:00N 31°43' W 124°21'1120.0
2017-Nov-15 14:29N 31°50' W 124°30'1020.2
2017-Nov-15 14:00N 31°56' W 124°39'3020.3
2017-Nov-15 12:31N 32°14' W 125°07'120.3
2017-Nov-15 12:27N 32°15' W 125°09'  
Track history (hours):
 
Tides and Currents Weather Stations Pressure Air Temp Water Temp Dewpoint Dewpoint Depression Visibility Wind Speed Wind Dir Waves Ship Positions

CMA CGM J. Adams

Last reported at 2017-Nov-16 05:38 UTC. Time now 2017-Nov-24 15:12 UTC.
Position N 28°41' W 119°45'.
Warning: this ship's position is 8 days out of date.

Length 366 m; draft 12.8 m.

Type: Ship (hazmat cat D). MMSI: 232007935.

Date/timePositionNaut miles runAvg speedWind from/ knotsBaromVisibWave heightAir tempDewpointWater temp
2017-Nov-16 05:38N 28°41' W 119°45'320.2
2017-Nov-16 05:30N 28°43' W 119°48'1220.1
2017-Nov-16 04:54N 28°50' W 119°59'819.9
2017-Nov-16 04:30N 28°55' W 120°06'1019.9
2017-Nov-16 03:59N 29°01' W 120°15'3920.0
2017-Nov-16 02:01N 29°24' W 120°52'119.7
2017-Nov-16 01:59N 29°25' W 120°52'919.7
2017-Nov-16 01:30N 29°30' W 121°01'1319.8
2017-Nov-16 00:50N 29°38' W 121°13'1419.8
2017-Nov-16 00:08N 29°47' W 121°26'219.9
2017-Nov-16 00:00N 29°48' W 121°28'1019.8
2017-Nov-15 23:30N 29°54' W 121°38'1019.8
2017-Nov-15 23:00N 29°60' W 121°47'1019.9
2017-Nov-15 22:30N 30°05' W 121°56'1019.8
2017-Nov-15 22:00N 30°11' W 122°05'1019.9
2017-Nov-15 21:30N 30°17' W 122°15'1020.0
2017-Nov-15 21:00N 30°24' W 122°24'1020.1
2017-Nov-15 20:30N 30°30' W 122°33'1020.3
2017-Nov-15 20:00N 30°36' W 122°42'1020.7
2017-Nov-15 19:30N 30°43' W 122°51'1020.5
2017-Nov-15 19:00N 30°49' W 123°00'1122.3
2017-Nov-15 18:30N 30°56' W 123°11'1223.5
2017-Nov-15 18:00N 31°04' W 123°21'1223.2
2017-Nov-15 17:30N 31°11' W 123°32'1223.1
2017-Nov-15 17:00N 31°18' W 123°43'1121.7
2017-Nov-15 16:30N 31°25' W 123°53'1020.5
2017-Nov-15 16:00N 31°31' W 124°02'1120.3
2017-Nov-15 15:29N 31°38' W 124°12'1020.0
2017-Nov-15 15:00N 31°43' W 124°21'1120.0
2017-Nov-15 14:29N 31°50' W 124°30'1020.2
2017-Nov-15 14:00N 31°56' W 124°39'3020.3
2017-Nov-15 12:31N 32°14' W 125°07'120.3
2017-Nov-15 12:27N 32°15' W 125°09'  

Dump ship's entire track history